createdAt,value
2023-02-15T00:03:00.041Z,964.39
2023-02-15T00:18:01.991Z,964.54
2023-02-15T00:33:03.946Z,964.73
2023-02-15T00:48:05.892Z,964.81
2023-02-15T01:03:07.741Z,965.12
2023-02-15T01:18:09.619Z,965.33
2023-02-15T01:33:11.444Z,965.63
2023-02-15T01:48:13.294Z,965.83
2023-02-15T02:03:15.118Z,966.07
2023-02-15T02:18:17.019Z,966.26
2023-02-15T02:33:18.868Z,966.4
2023-02-15T02:48:20.735Z,966.6
2023-02-15T03:03:22.565Z,966.7
2023-02-15T03:18:24.488Z,966.94
2023-02-15T03:33:26.324Z,967.17
2023-02-15T03:48:28.188Z,967.32
2023-02-15T04:03:30.058Z,967.64
2023-02-15T04:18:31.894Z,967.87
2023-02-15T04:33:33.754Z,968.12
2023-02-15T04:48:35.608Z,968.31
2023-02-15T05:03:37.428Z,968.51
2023-02-15T05:18:39.245Z,968.63
2023-02-15T05:33:41.123Z,968.79
2023-02-15T05:48:42.949Z,968.9
2023-02-15T06:03:44.879Z,969.13
2023-02-15T06:18:46.708Z,969.22
2023-02-15T06:33:48.602Z,969.28
2023-02-15T06:48:50.464Z,969.27
2023-02-15T07:03:52.390Z,969.41
2023-02-15T07:18:54.264Z,969.52
2023-02-15T07:33:56.126Z,969.7
2023-02-15T07:48:57.935Z,969.86
2023-02-15T08:03:59.918Z,970.05
2023-02-15T08:19:01.890Z,970.01
2023-02-15T08:34:03.818Z,970.17
2023-02-15T08:49:05.755Z,970.4
2023-02-15T09:04:07.685Z,970.46
2023-02-15T09:19:09.689Z,970.49
2023-02-15T09:34:11.616Z,970.57
2023-02-15T09:49:13.550Z,970.74
2023-02-15T10:04:15.588Z,970.83
2023-02-15T10:19:17.483Z,970.85
2023-02-15T10:34:19.409Z,971.06
2023-02-15T10:49:21.412Z,971.21
2023-02-15T11:04:23.365Z,971.06
2023-02-15T11:19:25.324Z,971.1
2023-02-15T11:34:27.315Z,971.2
2023-02-15T11:49:29.211Z,971.38
2023-02-15T12:04:31.127Z,971.45
2023-02-15T12:19:33.153Z,971.64
2023-02-15T12:34:35.064Z,971.76
2023-02-15T12:49:36.991Z,971.78
2023-02-15T13:04:38.914Z,971.98
2023-02-15T13:19:40.946Z,972.05
2023-02-15T13:34:42.876Z,972.19
2023-02-15T13:49:44.782Z,972.2
2023-02-15T14:04:46.721Z,972.33
2023-02-15T14:19:48.722Z,972.44
2023-02-15T14:34:50.628Z,972.51
2023-02-15T14:49:52.558Z,972.74
2023-02-15T15:04:54.539Z,972.82
2023-02-15T15:19:56.479Z,972.98
2023-02-15T15:34:58.406Z,973.08
2023-02-15T15:50:00.355Z,973.17
2023-02-15T16:05:02.302Z,973.21
2023-02-15T16:20:04.353Z,973.2
2023-02-15T16:35:06.302Z,973.38
2023-02-15T16:50:08.201Z,973.38
2023-02-15T17:05:10.205Z,973.39
2023-02-15T17:20:12.152Z,973.53
2023-02-15T17:35:14.106Z,973.53
2023-02-15T17:50:16.025Z,973.48
2023-02-15T18:05:18.039Z,973.36
2023-02-15T18:20:20.025Z,973.33
2023-02-15T18:35:21.952Z,973.35
2023-02-15T18:50:23.880Z,973.24
2023-02-15T19:05:25.842Z,973.08
2023-02-15T19:20:27.781Z,972.84
2023-02-15T19:35:29.755Z,972.66
2023-02-15T19:50:31.671Z,972.57
2023-02-15T20:05:33.612Z,972.34
2023-02-15T20:20:36.304Z,972.25
2023-02-15T20:35:38.286Z,971.86
2023-02-15T20:50:40.202Z,971.7
2023-02-15T21:05:42.158Z,971.61
2023-02-15T21:20:44.112Z,971.51
2023-02-15T21:35:46.045Z,971.4
2023-02-15T21:50:47.927Z,971.27
2023-02-15T22:05:49.832Z,971.25
2023-02-15T22:20:51.746Z,971.18
2023-02-15T22:35:53.775Z,971.04
2023-02-15T22:50:55.637Z,971.07
2023-02-15T23:05:57.523Z,971.17
2023-02-15T23:20:59.936Z,971.17
2023-02-15T23:36:01.952Z,971.23
2023-02-15T23:51:04.097Z,971.12
